Volkermarkt, Austria
Current Conditions -  °F | °C
As of 8:50 PM on Friday 24 Oct 2014 (Local Time) from LOWK Reporting Station
Scattered Clouds Scattered Clouds  
Wind Chill: 52°   Ceiling: Unl
Heat Index: 52°   Visibility: 6mi
Dew Point: 41°   Wind: 6mph
Humidity: 67%   Direction: 90°E
Pressure: 30.09"   Gusts: NA
Location:  46.66°N, 14.63°E
Report Text: LOWK 241850Z 09005KT 040V120 9999 SCT070 11/05 Q1019 NOSIG
Loading
Personal Weather Stations






























Interactive Weather Map
Tropical Storm Tracking
New forecast layout! Learn more

10-Day Weather Forecast

Advertisements
Track Severe Weather on mobile